createdAt,value
2022-09-09T00:01:46.731Z,2.70
2022-09-09T00:04:31.218Z,3.88
2022-09-09T00:07:04.524Z,3.08
2022-09-09T00:09:46.724Z,2.58
2022-09-09T00:12:18.280Z,2.60
2022-09-09T00:15:03.758Z,2.28
2022-09-09T00:17:42.591Z,3.10
2022-09-09T00:20:17.541Z,2.77
2022-09-09T00:23:00.216Z,2.63
2022-09-09T00:25:37.962Z,2.20
2022-09-09T00:28:18.269Z,3.30
2022-09-09T00:30:49.212Z,2.55
2022-09-09T00:33:22.117Z,2.35
2022-09-09T00:35:55.712Z,2.60
2022-09-09T00:38:36.401Z,3.20
2022-09-09T00:41:12.861Z,2.97
2022-09-09T00:43:42.146Z,2.50
2022-09-09T00:46:34.346Z,2.53
2022-09-09T00:49:20.889Z,2.72
2022-09-09T00:52:21.230Z,2.30
2022-09-09T00:54:53.798Z,2.10
2022-09-09T00:57:30.462Z,2.92
2022-09-09T01:00:19.674Z,2.83
2022-09-09T01:03:22.933Z,2.35
2022-09-09T01:06:22.335Z,2.60
2022-09-09T01:09:23.080Z,2.65
2022-09-09T01:11:58.601Z,2.85
2022-09-09T01:14:37.560Z,2.30
2022-09-09T01:17:19.543Z,1.90
2022-09-09T01:19:53.233Z,2.75
2022-09-09T01:22:37.988Z,2.55
2022-09-09T01:25:30.960Z,2.55
2022-09-09T01:28:04.566Z,2.50
2022-09-09T01:30:32.977Z,2.25
2022-09-09T01:33:01.344Z,2.08
2022-09-09T01:35:34.038Z,2.50
2022-09-09T01:38:01.048Z,2.42
2022-09-09T01:40:27.893Z,2.78
2022-09-09T01:42:55.459Z,2.83
2022-09-09T01:45:23.527Z,2.22
2022-09-09T01:47:51.595Z,2.25
2022-09-09T01:50:18.561Z,2.40
2022-09-09T01:52:49.906Z,2.35
2022-09-09T01:55:16.938Z,2.45
2022-09-09T01:58:04.268Z,2.15
2022-09-09T02:00:32.778Z,2.60
2022-09-09T02:03:15.888Z,2.42
2022-09-09T02:05:50.088Z,2.20
2022-09-09T02:08:25.619Z,2.17
2022-09-09T02:11:07.618Z,2.50
2022-09-09T02:13:37.419Z,2.80
2022-09-09T02:18:43.087Z,2.30
2022-09-09T02:21:12.748Z,2.38
2022-09-09T02:23:42.712Z,2.60
2022-09-09T02:26:15.826Z,2.03
2022-09-09T02:28:43.400Z,2.55
2022-09-09T02:31:10.362Z,2.20
2022-09-09T02:33:52.107Z,2.53
2022-09-09T02:36:19.915Z,2.03
2022-09-09T02:38:54.000Z,2.10
2022-09-09T02:41:36.529Z,2.45
2022-09-09T02:44:06.710Z,2.25
2022-09-09T02:46:36.454Z,2.10
2022-09-09T02:51:42.043Z,2.05
2022-09-09T02:54:17.872Z,2.38
2022-09-09T02:56:52.272Z,2.33
2022-09-09T02:59:19.147Z,1.88
2022-09-09T03:01:46.087Z,1.98
2022-09-09T03:04:12.721Z,2.60
2022-09-09T03:06:39.458Z,2.20
2022-09-09T03:09:06.184Z,2.42
2022-09-09T03:11:33.148Z,2.65
2022-09-09T03:13:59.806Z,2.55
2022-09-09T03:16:26.540Z,2.10
2022-09-09T03:18:53.237Z,3.10
2022-09-09T03:21:19.898Z,2.47
2022-09-09T03:23:46.683Z,2.55
2022-09-09T03:26:15.118Z,2.78
2022-09-09T03:28:43.198Z,2.80
2022-09-09T03:31:11.363Z,2.35
2022-09-09T03:33:39.144Z,2.72
2022-09-09T03:36:06.797Z,2.60
2022-09-09T03:38:33.528Z,2.25
2022-09-09T03:41:02.270Z,2.60
2022-09-09T03:43:29.532Z,2.40
2022-09-09T03:45:59.161Z,2.50
2022-09-09T03:48:27.968Z,3.15
2022-09-09T03:50:56.808Z,2.43
2022-09-09T03:53:25.751Z,2.30
2022-09-09T03:55:55.602Z,2.40
2022-09-09T03:58:25.191Z,2.97
2022-09-09T04:01:00.008Z,3.28
2022-09-09T04:03:28.484Z,3.20
2022-09-09T04:05:56.777Z,3.42
2022-09-09T04:08:25.458Z,2.45
2022-09-09T04:10:52.780Z,2.50
2022-09-09T04:13:20.687Z,2.90
2022-09-09T04:15:58.474Z,2.85
2022-09-09T04:18:26.884Z,2.45
2022-09-09T04:20:54.759Z,2.67
2022-09-09T04:23:21.773Z,2.38
2022-09-09T04:25:49.821Z,2.80
2022-09-09T04:28:17.791Z,2.45
2022-09-09T04:30:44.952Z,2.45
2022-09-09T04:33:12.917Z,2.60
2022-09-09T04:35:40.271Z,4.10
2022-09-09T04:38:10.428Z,3.08
2022-09-09T04:40:37.156Z,3.15
2022-09-09T04:43:10.448Z,2.80
2022-09-09T04:45:41.436Z,3.15
2022-09-09T04:48:08.429Z,3.30
2022-09-09T04:50:35.316Z,2.10
2022-09-09T04:53:03.053Z,2.30
2022-09-09T04:55:29.789Z,2.70
2022-09-09T04:57:56.516Z,2.80
2022-09-09T05:00:23.094Z,2.72
2022-09-09T05:02:49.744Z,2.67
2022-09-09T05:05:17.514Z,3.33
2022-09-09T05:07:44.381Z,2.53
2022-09-09T05:10:11.758Z,2.78
2022-09-09T05:12:38.387Z,3.50
2022-09-09T05:15:05.772Z,3.15
2022-09-09T05:17:32.495Z,2.53
2022-09-09T05:19:59.692Z,2.53
2022-09-09T05:22:26.366Z,2.97
2022-09-09T05:24:52.983Z,3.13
2022-09-09T05:27:20.475Z,3.47
2022-09-09T05:29:47.625Z,3.45
2022-09-09T05:32:16.052Z,3.17
2022-09-09T05:34:42.893Z,3.85
2022-09-09T05:37:09.519Z,2.58
2022-09-09T05:39:39.103Z,3.10
2022-09-09T05:44:33.089Z,2.47
2022-09-09T05:46:59.775Z,2.35
2022-09-09T05:49:26.607Z,2.10
2022-09-09T05:51:53.845Z,2.88
2022-09-09T05:54:20.522Z,2.70
2022-09-09T05:56:51.452Z,3.15
2022-09-09T05:59:19.308Z,3.20
2022-09-09T06:01:46.509Z,2.55
2022-09-09T06:04:13.390Z,3.00
2022-09-09T06:06:40.940Z,2.97
2022-09-09T06:09:10.774Z,2.83
2022-09-09T06:11:39.633Z,2.92
2022-09-09T06:14:07.189Z,3.57
2022-09-09T06:16:34.386Z,3.08
2022-09-09T06:19:02.204Z,2.90
2022-09-09T06:21:35.238Z,3.42
2022-09-09T06:24:02.132Z,2.88
2022-09-09T06:26:37.417Z,2.67
2022-09-09T06:29:05.305Z,3.28
2022-09-09T06:31:35.296Z,2.85
2022-09-09T06:34:03.077Z,3.35
2022-09-09T06:36:32.199Z,3.28
2022-09-09T06:38:59.761Z,3.17
2022-09-09T06:41:28.739Z,4.70
2022-09-09T06:46:49.602Z,4.28
2022-09-09T06:49:16.625Z,3.97
2022-09-09T06:51:44.775Z,3.97
2022-09-09T06:54:13.363Z,3.92
2022-09-09T06:56:43.172Z,3.90
2022-09-09T06:59:10.933Z,4.35
2022-09-09T07:01:42.038Z,5.30
2022-09-09T07:04:10.213Z,4.82
2022-09-09T07:06:44.185Z,4.80
2022-09-09T07:09:13.359Z,4.43
2022-09-09T07:11:52.893Z,4.68
2022-09-09T07:14:20.677Z,4.70
2022-09-09T07:16:48.135Z,3.78
2022-09-09T07:22:07.508Z,3.80
2022-09-09T07:24:34.566Z,3.80
2022-09-09T07:27:01.502Z,3.92
2022-09-09T07:32:20.895Z,2.97
2022-09-09T07:34:48.148Z,3.55
2022-09-09T07:37:15.471Z,3.42
2022-09-09T07:39:43.314Z,4.38
2022-09-09T07:42:12.352Z,3.75
2022-09-09T07:44:40.728Z,3.92
2022-09-09T07:47:07.668Z,3.40
2022-09-09T07:49:35.350Z,3.00
2022-09-09T07:52:03.062Z,3.38
2022-09-09T07:54:30.248Z,4.03
2022-09-09T07:56:57.401Z,3.15
2022-09-09T07:59:25.368Z,3.50
2022-09-09T08:01:57.071Z,3.38
2022-09-09T08:04:26.359Z,4.70
2022-09-09T08:06:55.008Z,3.78
2022-09-09T08:09:25.964Z,3.10
2022-09-09T08:11:53.195Z,3.72
2022-09-09T08:14:20.349Z,3.85
2022-09-09T08:16:49.132Z,2.92
2022-09-09T08:19:16.488Z,2.92
2022-09-09T08:21:44.874Z,3.30
2022-09-09T08:24:13.149Z,2.90
2022-09-09T08:26:42.962Z,3.80
2022-09-09T08:29:11.738Z,2.67
2022-09-09T08:31:41.451Z,2.88
2022-09-09T08:34:09.936Z,2.38
2022-09-09T08:50:14.032Z,5.03
2022-09-09T08:52:53.384Z,4.47
2022-09-09T08:55:29.935Z,5.18
2022-09-09T09:01:11.785Z,7.22
2022-09-09T09:03:54.580Z,9.05
2022-09-09T09:06:51.230Z,8.35
2022-09-09T09:09:33.629Z,8.07
2022-09-09T09:17:47.919Z,9.55
2022-09-09T09:20:20.377Z,9.05
2022-09-09T09:25:45.943Z,9.05
2022-09-09T09:28:24.942Z,11.27
2022-09-09T09:30:53.760Z,11.48
2022-09-09T09:33:28.498Z,10.97
2022-09-09T09:35:55.707Z,10.07
2022-09-09T09:44:05.694Z,12.05
2022-09-09T09:46:33.747Z,13.93
2022-09-09T09:49:03.985Z,10.85
2022-09-09T09:51:33.526Z,11.75
2022-09-09T09:54:19.689Z,12.05
2022-09-09T09:59:41.309Z,13.93
2022-09-09T10:02:27.674Z,15.32
2022-09-09T10:05:05.498Z,17.23
2022-09-09T10:07:33.708Z,11.95
2022-09-09T10:10:00.862Z,9.70
2022-09-09T10:12:34.147Z,11.07
2022-09-09T10:15:21.157Z,10.23
2022-09-09T10:18:30.292Z,9.35
2022-09-09T10:24:54.600Z,6.60
2022-09-09T10:27:58.995Z,5.45
2022-09-09T10:31:05.144Z,5.65
2022-09-09T10:33:35.565Z,5.43
2022-09-09T10:36:12.287Z,4.90
2022-09-09T10:38:44.527Z,3.72
2022-09-09T10:44:41.832Z,3.05
2022-09-09T10:47:27.918Z,3.20
2022-09-09T10:50:18.468Z,3.47
2022-09-09T10:52:56.449Z,3.45
2022-09-09T10:55:31.882Z,3.75
2022-09-09T10:58:01.717Z,2.25
2022-09-09T11:00:43.319Z,2.53
2022-09-09T11:03:23.444Z,1.92
2022-09-09T11:06:07.121Z,2.13
2022-09-09T11:08:40.395Z,1.90
2022-09-09T11:11:28.200Z,1.63
2022-09-09T11:14:27.142Z,1.67
2022-09-09T11:16:58.936Z,1.70
2022-09-09T11:19:35.248Z,1.27
2022-09-09T11:22:22.148Z,1.73
2022-09-09T11:24:52.251Z,1.20
2022-09-09T11:27:37.276Z,1.45
2022-09-09T11:30:03.861Z,1.70
2022-09-09T11:33:00.138Z,1.30
2022-09-09T11:35:48.131Z,1.10
2022-09-09T11:38:46.851Z,1.00
2022-09-09T11:41:19.349Z,1.20
2022-09-09T11:43:53.192Z,0.90
2022-09-09T11:46:37.346Z,1.15
2022-09-09T11:49:06.807Z,1.00
2022-09-09T11:51:34.848Z,1.00
2022-09-09T11:54:50.148Z,0.95
2022-09-09T11:57:25.884Z,1.00
2022-09-09T11:59:53.538Z,1.10
2022-09-09T12:02:32.255Z,1.17
2022-09-09T12:05:11.003Z,1.55
2022-09-09T12:07:43.795Z,1.17
2022-09-09T12:10:40.939Z,1.80
2022-09-09T12:13:24.359Z,1.33
2022-09-09T12:15:54.545Z,1.27
2022-09-09T12:18:26.294Z,1.40
2022-09-09T12:21:16.121Z,1.50
2022-09-09T12:23:58.889Z,1.38
2022-09-09T12:26:43.293Z,1.27
2022-09-09T12:29:12.990Z,1.73
2022-09-09T12:34:43.771Z,1.40
2022-09-09T12:37:27.554Z,1.38
2022-09-09T12:40:00.373Z,1.15
2022-09-09T12:42:28.407Z,1.20
2022-09-09T12:45:00.800Z,1.67
2022-09-09T12:47:32.016Z,1.30
2022-09-09T12:49:58.833Z,1.10
2022-09-09T12:52:31.236Z,1.00
2022-09-09T12:55:00.945Z,0.60
2022-09-09T13:00:07.899Z,1.17
2022-09-09T13:02:35.082Z,0.90
2022-09-09T13:05:37.589Z,1.48
2022-09-09T13:08:11.269Z,1.00
2022-09-09T13:10:55.430Z,1.08
2022-09-09T13:13:31.042Z,1.27
2022-09-09T13:16:00.138Z,1.60
2022-09-09T13:18:41.127Z,1.48
2022-09-09T13:21:07.804Z,2.42
2022-09-09T13:23:36.970Z,0.82
2022-09-09T13:26:08.683Z,1.55
2022-09-09T13:28:36.059Z,1.15
2022-09-09T13:31:04.500Z,0.63
2022-09-09T13:33:40.977Z,0.70
2022-09-09T13:36:13.256Z,1.13
2022-09-09T13:38:55.713Z,1.40
2022-09-09T13:41:46.751Z,1.20
2022-09-09T13:44:26.566Z,0.85
2022-09-09T13:47:10.554Z,1.10
2022-09-09T13:49:37.732Z,0.88
2022-09-09T13:52:12.942Z,0.90
2022-09-09T13:54:40.190Z,1.42
2022-09-09T13:57:15.922Z,1.10
2022-09-09T14:00:03.618Z,0.70
2022-09-09T14:02:29.296Z,1.00
2022-09-09T14:04:56.433Z,0.90
2022-09-09T14:07:23.087Z,0.63
2022-09-09T14:09:51.076Z,1.10
2022-09-09T14:12:17.799Z,0.85
2022-09-09T14:14:44.864Z,0.98
2022-09-09T14:17:11.717Z,0.90
2022-09-09T14:19:38.474Z,0.68
2022-09-09T14:22:05.080Z,1.08
2022-09-09T14:24:31.935Z,1.10
2022-09-09T14:26:58.539Z,0.90
2022-09-09T14:29:27.631Z,1.45
2022-09-09T14:31:54.259Z,0.73
2022-09-09T14:34:21.012Z,0.80
2022-09-09T14:36:48.307Z,0.90
2022-09-09T14:39:14.947Z,0.73
2022-09-09T14:41:41.584Z,1.02
2022-09-09T14:44:09.159Z,0.70
2022-09-09T14:46:35.849Z,1.13
2022-09-09T14:49:02.730Z,1.65
2022-09-09T14:51:29.381Z,1.00
2022-09-09T14:53:59.150Z,0.90
2022-09-09T14:56:28.187Z,1.05
2022-09-09T14:58:58.687Z,1.48
2022-09-09T15:01:28.324Z,0.60
2022-09-09T15:04:03.466Z,1.30
2022-09-09T15:06:34.123Z,0.80
2022-09-09T15:09:01.464Z,0.60
2022-09-09T15:11:31.561Z,0.88
2022-09-09T15:13:59.182Z,1.15
2022-09-09T15:16:28.735Z,1.00
2022-09-09T15:18:58.373Z,0.70
2022-09-09T15:23:53.368Z,0.63
2022-09-09T15:26:21.626Z,1.10
2022-09-09T15:28:50.600Z,0.90
2022-09-09T15:31:25.964Z,1.73
2022-09-09T15:34:01.465Z,1.30
2022-09-09T15:36:37.078Z,1.00
2022-09-09T15:39:06.383Z,0.90
2022-09-09T15:41:33.437Z,1.10
2022-09-09T15:44:01.539Z,0.93
2022-09-09T15:46:39.980Z,0.70
2022-09-09T15:49:15.254Z,0.88
2022-09-09T15:51:44.847Z,0.77
2022-09-09T15:54:14.767Z,1.10
2022-09-09T15:59:08.325Z,0.98
2022-09-09T16:01:36.724Z,0.80
2022-09-09T16:04:03.630Z,1.15
2022-09-09T16:06:31.024Z,1.27
2022-09-09T16:08:59.237Z,0.80
2022-09-09T16:11:35.986Z,0.93
2022-09-09T16:14:03.059Z,1.00
2022-09-09T16:16:30.964Z,1.10
2022-09-09T16:19:05.002Z,0.90
2022-09-09T16:21:36.855Z,0.80
2022-09-09T16:24:04.888Z,1.02
2022-09-09T16:26:34.435Z,1.10
2022-09-09T16:29:02.370Z,1.10
2022-09-09T16:31:30.406Z,0.80
2022-09-09T16:33:57.400Z,0.73
2022-09-09T16:36:26.198Z,1.30
2022-09-09T16:38:58.460Z,1.00
2022-09-09T16:41:26.784Z,0.88
2022-09-09T16:43:59.135Z,1.08
2022-09-09T16:46:28.576Z,0.95
2022-09-09T16:48:59.291Z,1.10
2022-09-09T16:51:34.208Z,1.00
2022-09-09T16:54:03.021Z,1.20
2022-09-09T16:56:33.965Z,1.43
2022-09-09T16:59:02.969Z,0.80
2022-09-09T17:01:32.629Z,0.90
2022-09-09T17:06:30.425Z,1.27
2022-09-09T17:09:05.675Z,1.20
2022-09-09T17:11:32.518Z,0.70
2022-09-09T17:14:01.226Z,1.15
2022-09-09T17:16:30.827Z,0.85
2022-09-09T17:21:27.251Z,0.93
2022-09-09T17:23:55.039Z,1.02
2022-09-09T17:26:23.994Z,1.13
2022-09-09T17:28:50.649Z,0.90
2022-09-09T17:31:18.975Z,1.25
2022-09-09T17:33:49.568Z,1.33
2022-09-09T17:36:17.631Z,0.85
2022-09-09T17:38:45.721Z,1.10
2022-09-09T17:41:16.062Z,1.10
2022-09-09T17:46:39.390Z,6.03
2022-09-09T17:49:09.974Z,2.25
2022-09-09T17:51:37.829Z,6.20
2022-09-09T17:54:08.659Z,2.22
2022-09-09T17:56:36.328Z,5.50
2022-09-09T17:59:06.234Z,5.50
2022-09-09T18:04:26.341Z,5.25
2022-09-09T18:06:54.306Z,1.30
2022-09-09T18:09:24.531Z,2.30
2022-09-09T18:14:45.861Z,2.38
2022-09-09T18:17:13.012Z,1.52
2022-09-09T18:19:40.058Z,1.05
2022-09-09T18:22:07.618Z,4.53
2022-09-09T18:24:36.711Z,5.83
2022-09-09T18:27:04.176Z,1.50
2022-09-09T18:29:31.240Z,3.97
2022-09-09T18:31:58.472Z,2.05
2022-09-09T18:34:28.704Z,2.67
2022-09-09T18:36:56.761Z,2.60
2022-09-09T18:39:29.443Z,1.58
2022-09-09T18:44:53.551Z,0.90
2022-09-09T18:47:21.725Z,1.90
2022-09-09T18:49:51.029Z,1.40
2022-09-09T18:52:18.063Z,1.10
2022-09-09T18:54:46.349Z,1.20
2022-09-09T18:57:13.386Z,0.98
2022-09-09T18:59:40.640Z,1.15
2022-09-09T19:02:07.832Z,1.23
2022-09-09T19:04:35.240Z,13.00
2022-09-09T19:07:02.310Z,10.02
2022-09-09T19:09:32.512Z,6.18
2022-09-09T19:12:00.702Z,1.17
2022-09-09T19:14:28.361Z,4.13
2022-09-09T19:16:56.432Z,6.88
2022-09-09T19:19:26.744Z,12.88
2022-09-09T19:21:58.404Z,2.95
2022-09-09T19:24:30.672Z,2.67
2022-09-09T19:27:02.015Z,6.13
2022-09-09T19:29:32.598Z,2.33
2022-09-09T19:32:36.803Z,4.22
2022-09-09T19:37:42.463Z,4.45
2022-09-09T19:40:11.455Z,2.53
2022-09-09T19:42:38.467Z,1.80
2022-09-09T19:45:07.015Z,0.88
2022-09-09T19:50:25.930Z,1.08
2022-09-09T19:52:53.090Z,1.08
2022-09-09T19:55:20.128Z,1.60
2022-09-09T19:57:47.181Z,1.20
2022-09-09T20:00:14.320Z,1.30
2022-09-09T20:02:58.084Z,1.13
2022-09-09T20:05:32.374Z,1.08
2022-09-09T20:10:52.279Z,1.45
2022-09-09T20:13:19.429Z,1.00
2022-09-09T20:15:46.932Z,0.80
2022-09-09T20:18:14.337Z,0.70
2022-09-09T20:20:43.019Z,1.10
2022-09-09T20:23:15.113Z,0.82
2022-09-09T20:25:42.141Z,1.17
2022-09-09T20:28:09.389Z,1.17
2022-09-09T20:30:38.391Z,1.02
2022-09-09T20:33:06.067Z,0.90
2022-09-09T20:35:33.498Z,1.10
2022-09-09T20:38:00.975Z,0.50
2022-09-09T20:40:31.552Z,0.75
2022-09-09T20:43:00.489Z,0.85
2022-09-09T20:45:27.626Z,0.93
2022-09-09T20:47:57.438Z,0.60
2022-09-09T20:52:52.571Z,0.80
2022-09-09T20:58:10.714Z,0.82
2022-09-09T21:00:37.861Z,0.80
2022-09-09T21:03:04.913Z,0.73
2022-09-09T21:05:32.370Z,0.77
2022-09-09T21:07:59.422Z,0.88
2022-09-09T21:10:26.768Z,0.63
2022-09-09T21:12:54.638Z,0.90
2022-09-09T21:15:21.584Z,0.70
2022-09-09T21:17:48.836Z,0.70
2022-09-09T21:20:16.091Z,0.70
2022-09-09T21:22:43.336Z,1.00
2022-09-09T21:25:10.389Z,1.35
2022-09-09T21:27:37.852Z,0.95
2022-09-09T21:30:05.503Z,0.82
2022-09-09T21:32:33.092Z,0.73
2022-09-09T21:35:00.312Z,1.10
2022-09-09T21:37:27.258Z,5.38
2022-09-09T21:39:54.877Z,6.10
2022-09-09T21:42:21.963Z,3.25
2022-09-09T21:44:49.012Z,1.70
2022-09-09T21:47:16.268Z,1.25
2022-09-09T21:49:43.518Z,4.70
2022-09-09T21:52:10.568Z,3.20
2022-09-09T21:54:39.767Z,2.05
2022-09-09T21:57:06.722Z,10.77
2022-09-09T21:59:33.981Z,4.57
2022-09-09T22:02:04.467Z,1.42
2022-09-09T22:04:31.333Z,4.30
2022-09-09T22:06:58.591Z,3.28
2022-09-09T22:09:25.629Z,1.85
2022-09-09T22:11:52.899Z,2.35
2022-09-09T22:14:20.032Z,5.10
2022-09-09T22:16:47.085Z,1.95
2022-09-09T22:19:14.161Z,3.15
2022-09-09T22:21:41.693Z,2.17
2022-09-09T22:24:08.936Z,2.72
2022-09-09T22:26:37.625Z,2.17
2022-09-09T22:29:06.211Z,1.60
2022-09-09T22:31:34.338Z,3.33
2022-09-09T22:34:01.634Z,2.08
2022-09-09T22:36:28.777Z,2.80
2022-09-09T22:38:56.958Z,3.53
2022-09-09T22:41:25.332Z,3.10
2022-09-09T22:43:52.590Z,8.77
2022-09-09T22:46:20.208Z,5.82
2022-09-09T22:48:47.600Z,3.70
2022-09-09T22:51:16.180Z,3.88
2022-09-09T22:53:45.174Z,3.55
2022-09-09T22:56:17.965Z,7.70
2022-09-09T22:58:46.440Z,5.68
2022-09-09T23:01:19.511Z,2.92
2022-09-09T23:03:47.752Z,2.83
2022-09-09T23:06:23.353Z,2.85
2022-09-09T23:08:57.670Z,3.33
2022-09-09T23:11:32.705Z,2.78
2022-09-09T23:14:06.922Z,3.53
2022-09-09T23:16:39.901Z,4.65
2022-09-09T23:22:03.698Z,4.40
2022-09-09T23:24:30.753Z,3.50
2022-09-09T23:26:57.709Z,3.55
2022-09-09T23:29:24.736Z,4.68
2022-09-09T23:31:51.486Z,4.78
2022-09-09T23:34:18.295Z,3.65
2022-09-09T23:36:45.017Z,3.83
2022-09-09T23:39:13.230Z,3.38
2022-09-09T23:41:40.261Z,5.10
2022-09-09T23:44:07.730Z,4.07
2022-09-09T23:46:35.331Z,4.95
2022-09-09T23:49:03.744Z,5.13
2022-09-09T23:51:31.451Z,4.72
2022-09-09T23:54:01.967Z,4.85
2022-09-09T23:56:32.318Z,4.60
2022-09-09T23:58:59.462Z,3.92
